createdAt,value
2022-10-01T00:02:00.414Z,91.91
2022-10-01T00:04:28.100Z,92.66
2022-10-01T00:06:59.116Z,92.62
2022-10-01T00:09:26.920Z,92.59
2022-10-01T00:11:54.137Z,92.65
2022-10-01T00:14:21.440Z,93.78
2022-10-01T00:16:48.751Z,92.79
2022-10-01T00:19:16.061Z,93.01
2022-10-01T00:21:43.451Z,93.57
2022-10-01T00:24:14.089Z,93.56
2022-10-01T00:26:42.784Z,93.31
2022-10-01T00:29:13.047Z,93.71
2022-10-01T00:31:40.458Z,93.77
2022-10-01T00:34:07.918Z,93.32
2022-10-01T00:36:35.457Z,92.84
2022-10-01T00:39:02.762Z,93.57
2022-10-01T00:41:35.625Z,93.55
2022-10-01T00:44:23.654Z,93.13
2022-10-01T00:46:51.081Z,94.04
2022-10-01T00:49:22.296Z,93.95
2022-10-01T00:51:52.734Z,93.80
2022-10-01T00:54:43.175Z,94.70
2022-10-01T00:57:10.619Z,94.45
2022-10-01T00:59:37.791Z,95.49
2022-10-01T01:02:05.054Z,95.38
2022-10-01T01:04:33.467Z,95.28
2022-10-01T01:07:02.453Z,94.72
2022-10-01T01:09:36.096Z,94.47
2022-10-01T01:12:27.029Z,95.04
2022-10-01T01:15:28.453Z,94.88
2022-10-01T01:18:03.588Z,94.21
2022-10-01T01:20:40.200Z,94.13
2022-10-01T01:23:16.482Z,94.88
2022-10-01T01:26:04.320Z,94.82
2022-10-01T01:28:38.086Z,95.43
2022-10-01T01:31:12.339Z,94.87
2022-10-01T01:33:40.278Z,94.37
2022-10-01T01:36:16.305Z,95.21
2022-10-01T01:38:54.932Z,95.38
2022-10-01T01:41:24.676Z,94.94
2022-10-01T01:43:54.613Z,94.84
2022-10-01T01:46:22.114Z,95.49
2022-10-01T01:48:51.119Z,95.63
2022-10-01T01:51:32.456Z,95.52
2022-10-01T01:54:00.127Z,95.48
2022-10-01T01:56:27.407Z,95.72
2022-10-01T01:58:54.573Z,96.79
2022-10-01T02:01:37.732Z,96.93
2022-10-01T02:04:22.979Z,96.80
2022-10-01T02:07:05.661Z,96.87
2022-10-01T02:09:51.280Z,96.38
2022-10-01T02:12:56.060Z,95.99
2022-10-01T02:15:32.112Z,96.32
2022-10-01T02:18:12.735Z,96.63
2022-10-01T02:20:47.308Z,97.89
2022-10-01T02:23:20.292Z,97.03
2022-10-01T02:25:53.071Z,97.97
2022-10-01T02:28:23.212Z,97.97
2022-10-01T02:30:54.077Z,97.67
2022-10-01T02:33:29.138Z,97.04
2022-10-01T02:35:57.075Z,97.34
2022-10-01T02:38:24.995Z,96.27
2022-10-01T02:40:54.795Z,97.04
2022-10-01T02:43:57.845Z,97.33
2022-10-01T02:46:33.011Z,97.04
2022-10-01T02:49:02.394Z,96.78
2022-10-01T02:51:47.816Z,96.58
2022-10-01T02:54:21.748Z,97.20
2022-10-01T02:57:07.465Z,96.60
2022-10-01T02:59:35.008Z,96.63
2022-10-01T03:02:02.321Z,95.96
2022-10-01T03:04:29.562Z,96.48
2022-10-01T03:07:01.511Z,96.70
2022-10-01T03:09:28.698Z,96.83
2022-10-01T03:11:55.891Z,96.33
2022-10-01T03:14:24.548Z,96.12
2022-10-01T03:16:55.367Z,96.32
2022-10-01T03:19:22.513Z,97.07
2022-10-01T03:21:49.671Z,96.05
2022-10-01T03:24:16.814Z,96.02
2022-10-01T03:26:45.308Z,96.71
2022-10-01T03:29:13.318Z,96.38
2022-10-01T03:31:40.634Z,97.07
2022-10-01T03:34:08.525Z,96.91
2022-10-01T03:36:37.857Z,96.79
2022-10-01T03:39:05.018Z,97.23
2022-10-01T03:41:32.730Z,96.15
2022-10-01T03:44:00.753Z,95.75
2022-10-01T03:46:28.132Z,96.75
2022-10-01T03:48:57.641Z,95.94
2022-10-01T03:51:25.171Z,96.33
2022-10-01T03:53:52.322Z,95.45
2022-10-01T03:56:19.488Z,96.16
2022-10-01T03:58:46.986Z,96.30
2022-10-01T04:01:14.255Z,96.86
2022-10-01T04:03:41.518Z,96.01
2022-10-01T04:06:08.869Z,95.88
2022-10-01T04:08:36.024Z,96.33
2022-10-01T04:11:03.270Z,96.52
2022-10-01T04:13:31.355Z,96.30
2022-10-01T04:15:58.756Z,96.39
2022-10-01T04:18:25.981Z,96.03
2022-10-01T04:20:53.287Z,96.67
2022-10-01T04:23:20.476Z,96.90
2022-10-01T04:25:47.708Z,96.58
2022-10-01T04:28:15.233Z,96.97
2022-10-01T04:30:45.273Z,96.98
2022-10-01T04:33:14.675Z,96.88
2022-10-01T04:35:42.355Z,97.14
2022-10-01T04:38:14.536Z,97.12
2022-10-01T04:40:41.907Z,96.31
2022-10-01T04:43:09.750Z,97.01
2022-10-01T04:45:40.069Z,97.29
2022-10-01T04:48:07.237Z,97.13
2022-10-01T04:50:34.434Z,97.31
2022-10-01T04:53:01.559Z,97.18
2022-10-01T04:55:28.735Z,97.10
2022-10-01T04:57:55.863Z,97.34
2022-10-01T05:00:26.970Z,96.96
2022-10-01T05:02:54.559Z,96.46
2022-10-01T05:05:23.696Z,97.01
2022-10-01T05:07:51.152Z,97.66
2022-10-01T05:10:20.556Z,96.75
2022-10-01T05:12:48.351Z,96.45
2022-10-01T05:15:16.560Z,96.19
2022-10-01T05:17:43.827Z,96.91
2022-10-01T05:20:23.031Z,96.60
2022-10-01T05:22:50.184Z,96.66
2022-10-01T05:25:18.086Z,95.99
2022-10-01T05:27:45.501Z,96.94
2022-10-01T05:30:14.095Z,96.50
2022-10-01T05:32:41.897Z,96.67
2022-10-01T05:35:09.507Z,95.69
2022-10-01T05:37:36.794Z,95.81
2022-10-01T05:40:04.239Z,95.59
2022-10-01T05:42:31.376Z,95.51
2022-10-01T05:44:58.519Z,95.80
2022-10-01T05:47:25.733Z,95.20
2022-10-01T05:49:52.876Z,95.26
2022-10-01T05:52:20.093Z,95.39
2022-10-01T05:54:47.240Z,95.98
2022-10-01T05:57:14.424Z,95.24
2022-10-01T05:59:41.624Z,95.65
2022-10-01T06:02:10.398Z,94.85
2022-10-01T06:04:41.021Z,94.17
2022-10-01T06:07:09.226Z,94.30
2022-10-01T06:09:36.390Z,93.77
2022-10-01T06:12:07.933Z,93.27
2022-10-01T06:14:35.448Z,92.92
2022-10-01T06:17:02.626Z,92.87
2022-10-01T06:19:29.807Z,92.72
2022-10-01T06:21:56.943Z,92.53
2022-10-01T06:24:24.100Z,92.18
2022-10-01T06:26:51.278Z,92.00
2022-10-01T06:29:18.429Z,92.39
2022-10-01T06:31:45.615Z,91.98
2022-10-01T06:34:12.800Z,91.91
2022-10-01T06:36:39.979Z,91.78
2022-10-01T06:39:07.192Z,91.65
2022-10-01T06:41:34.668Z,91.46
2022-10-01T06:44:02.216Z,91.87
2022-10-01T06:46:29.365Z,91.92
2022-10-01T06:48:56.515Z,91.57
2022-10-01T06:51:43.640Z,91.26
2022-10-01T06:54:10.824Z,91.08
2022-10-01T06:56:37.959Z,90.97
2022-10-01T06:59:05.123Z,90.79
2022-10-01T07:01:33.027Z,90.62
2022-10-01T07:04:00.424Z,90.49
2022-10-01T07:06:28.052Z,90.35
2022-10-01T07:08:55.458Z,90.33
2022-10-01T07:11:22.607Z,90.38
2022-10-01T07:13:54.656Z,90.08
2022-10-01T07:16:22.339Z,90.08
2022-10-01T07:18:49.542Z,90.23
2022-10-01T07:21:16.956Z,89.54
2022-10-01T07:23:44.107Z,89.58
2022-10-01T07:26:11.259Z,90.18
2022-10-01T07:28:38.456Z,89.24
2022-10-01T07:31:07.910Z,89.44
2022-10-01T07:33:35.299Z,89.25
2022-10-01T07:36:04.247Z,88.66
2022-10-01T07:38:33.302Z,88.64
2022-10-01T07:41:02.479Z,88.28
2022-10-01T07:43:34.552Z,88.12
2022-10-01T07:46:03.467Z,87.52
2022-10-01T07:48:31.104Z,87.54
2022-10-01T07:50:58.404Z,87.06
2022-10-01T07:53:25.960Z,86.79
2022-10-01T07:55:53.100Z,86.86
2022-10-01T07:58:23.951Z,86.34
2022-10-01T08:00:55.854Z,86.17
2022-10-01T08:03:23.286Z,85.71
2022-10-01T08:05:50.418Z,85.95
2022-10-01T08:08:17.568Z,85.30
2022-10-01T08:10:44.953Z,84.55
2022-10-01T08:13:16.595Z,84.97
2022-10-01T08:15:46.099Z,85.33
2022-10-01T08:18:13.343Z,84.60
2022-10-01T08:20:40.640Z,84.42
2022-10-01T08:23:10.362Z,84.09
2022-10-01T08:25:38.300Z,83.90
2022-10-01T08:28:06.568Z,84.38
2022-10-01T08:30:34.250Z,84.35
2022-10-01T08:33:02.039Z,83.29
2022-10-01T08:35:30.265Z,83.46
2022-10-01T08:38:04.466Z,82.11
2022-10-01T08:40:36.747Z,82.64
2022-10-01T08:43:07.286Z,82.49
2022-10-01T08:45:46.040Z,81.96
2022-10-01T08:48:28.112Z,82.12
2022-10-01T08:51:09.135Z,80.82
2022-10-01T08:53:38.463Z,80.65
2022-10-01T08:56:05.772Z,80.13
2022-10-01T08:58:43.831Z,80.01
2022-10-01T09:01:12.657Z,79.85
2022-10-01T09:03:40.725Z,80.45
2022-10-01T09:06:28.444Z,81.53
2022-10-01T09:08:58.135Z,82.12
2022-10-01T09:11:46.892Z,82.57
2022-10-01T09:14:30.529Z,83.16
2022-10-01T09:17:04.034Z,83.80
2022-10-01T09:20:01.941Z,84.09
2022-10-01T09:22:44.471Z,83.61
2022-10-01T09:25:30.414Z,82.46
2022-10-01T09:28:10.185Z,83.18
2022-10-01T09:30:38.474Z,83.32
2022-10-01T09:33:12.746Z,83.82
2022-10-01T09:35:49.398Z,84.42
2022-10-01T09:38:28.242Z,85.31
2022-10-01T09:40:59.122Z,85.23
2022-10-01T09:43:31.931Z,85.81
2022-10-01T09:45:59.775Z,87.52
2022-10-01T09:48:42.782Z,87.47
2022-10-01T09:51:11.179Z,86.88
2022-10-01T09:54:00.242Z,87.05
2022-10-01T09:56:31.239Z,87.30
2022-10-01T09:59:02.099Z,87.65
2022-10-01T10:01:46.205Z,87.92
2022-10-01T10:04:20.810Z,89.12
2022-10-01T10:06:48.135Z,89.90
2022-10-01T10:09:17.903Z,90.67
2022-10-01T10:11:45.282Z,91.95
2022-10-01T10:14:21.612Z,92.81
2022-10-01T10:16:49.333Z,94.26
2022-10-01T10:19:24.324Z,95.14
2022-10-01T10:21:57.969Z,96.44
2022-10-01T10:24:35.272Z,97.68
2022-10-01T10:27:17.064Z,97.92
2022-10-01T10:29:45.239Z,98.42
2022-10-01T10:32:26.819Z,99.49
2022-10-01T10:35:02.099Z,100.00
2022-10-01T10:37:32.722Z,100.00
2022-10-01T10:39:59.922Z,100.00
2022-10-01T10:42:28.937Z,100.00
2022-10-01T10:44:58.158Z,100.00
2022-10-01T10:47:27.192Z,100.00
2022-10-01T10:50:19.079Z,100.00
2022-10-01T10:52:46.540Z,100.00
2022-10-01T10:55:25.049Z,100.00
2022-10-01T10:57:57.317Z,100.00
2022-10-01T11:00:26.191Z,100.00
2022-10-01T11:03:04.059Z,100.00
2022-10-01T11:05:33.559Z,100.00
2022-10-01T11:08:04.443Z,100.00
2022-10-01T11:10:43.812Z,100.00
2022-10-01T11:13:20.817Z,100.00
2022-10-01T11:16:12.732Z,100.00
2022-10-01T11:19:11.311Z,100.00
2022-10-01T11:21:50.823Z,100.00
2022-10-01T11:24:41.239Z,100.00
2022-10-01T11:27:24.271Z,100.00
2022-10-01T11:30:20.959Z,100.00
2022-10-01T11:32:52.855Z,100.00
2022-10-01T11:35:29.249Z,100.00
2022-10-01T11:38:30.701Z,100.00
2022-10-01T11:41:13.447Z,100.00
2022-10-01T11:43:53.752Z,98.62
2022-10-01T11:46:56.217Z,98.52
2022-10-01T11:49:50.127Z,98.32
2022-10-01T11:52:27.788Z,98.24
2022-10-01T11:55:25.676Z,97.82
2022-10-01T11:58:16.115Z,98.03
2022-10-01T12:01:03.781Z,97.89
2022-10-01T12:03:37.692Z,97.86
2022-10-01T12:06:09.277Z,98.18
2022-10-01T12:08:38.606Z,98.83
2022-10-01T12:11:05.757Z,99.14
2022-10-01T12:13:40.489Z,100.00
2022-10-01T12:16:23.032Z,100.00
2022-10-01T12:19:02.523Z,100.00
2022-10-01T12:21:48.094Z,100.00
2022-10-01T12:24:24.233Z,100.00
2022-10-01T12:27:14.367Z,100.00
2022-10-01T12:29:52.055Z,100.00
2022-10-01T12:32:40.595Z,100.00
2022-10-01T12:35:35.297Z,100.00
2022-10-01T12:38:25.264Z,100.00
2022-10-01T12:41:30.006Z,100.00
2022-10-01T12:44:21.372Z,100.00
2022-10-01T12:47:06.992Z,100.00
2022-10-01T12:49:43.573Z,100.00
2022-10-01T12:52:39.802Z,100.00
2022-10-01T12:55:34.300Z,100.00
2022-10-01T12:58:33.652Z,100.00
2022-10-01T13:01:18.679Z,100.00
2022-10-01T13:04:07.609Z,100.00
2022-10-01T13:06:56.520Z,100.00
2022-10-01T13:09:48.002Z,100.00
2022-10-01T13:12:38.803Z,100.00
2022-10-01T13:15:18.135Z,100.00
2022-10-01T13:18:22.943Z,99.98
2022-10-01T13:20:57.663Z,99.96
2022-10-01T13:23:39.346Z,98.94
2022-10-01T13:26:22.524Z,98.48
2022-10-01T13:29:14.438Z,97.81
2022-10-01T13:32:01.659Z,97.72
2022-10-01T13:34:41.766Z,98.03
2022-10-01T13:37:31.367Z,96.82
2022-10-01T13:39:59.916Z,96.68
2022-10-01T13:42:44.801Z,96.06
2022-10-01T13:45:29.236Z,95.22
2022-10-01T13:48:13.419Z,95.18
2022-10-01T13:50:41.916Z,94.86
2022-10-01T13:53:16.147Z,94.68
2022-10-01T13:55:45.640Z,94.89
2022-10-01T13:58:33.263Z,94.81
2022-10-01T14:01:03.837Z,94.69
2022-10-01T14:03:57.264Z,93.96
2022-10-01T14:06:36.391Z,94.29
2022-10-01T14:09:31.436Z,94.49
2022-10-01T14:12:38.671Z,94.62
2022-10-01T14:15:40.325Z,94.68
2022-10-01T14:18:14.656Z,94.56
2022-10-01T14:20:52.733Z,94.75
2022-10-01T14:23:52.607Z,94.76
2022-10-01T14:27:01.409Z,94.57
2022-10-01T14:30:28.756Z,94.62
2022-10-01T14:33:05.575Z,94.23
2022-10-01T14:35:44.653Z,94.11
2022-10-01T14:38:15.011Z,94.19
2022-10-01T14:40:45.201Z,94.29
2022-10-01T14:43:27.654Z,93.57
2022-10-01T14:45:54.708Z,93.30
2022-10-01T14:48:22.983Z,93.15
2022-10-01T14:50:53.735Z,93.19
2022-10-01T14:53:23.769Z,92.51
2022-10-01T14:55:54.029Z,92.90
2022-10-01T14:58:39.734Z,93.06
2022-10-01T15:01:07.333Z,92.33
2022-10-01T15:03:39.568Z,92.64
2022-10-01T15:06:24.142Z,92.81
2022-10-01T15:08:54.646Z,92.60
2022-10-01T15:11:24.356Z,92.91
2022-10-01T15:13:53.210Z,92.14
2022-10-01T15:16:25.417Z,92.63
2022-10-01T15:19:05.843Z,92.07
2022-10-01T15:21:51.436Z,92.03
2022-10-01T15:24:21.416Z,92.58
2022-10-01T15:26:49.461Z,92.42
2022-10-01T15:29:17.471Z,91.97
2022-10-01T15:31:46.538Z,91.84
2022-10-01T15:34:18.281Z,92.19
2022-10-01T15:36:47.630Z,92.02
2022-10-01T15:39:39.789Z,92.20
2022-10-01T15:42:09.097Z,92.56
2022-10-01T15:44:38.370Z,92.57
2022-10-01T15:47:34.881Z,93.28
2022-10-01T15:50:08.890Z,93.29
2022-10-01T15:53:03.293Z,93.38
2022-10-01T15:55:34.333Z,93.86
2022-10-01T15:58:11.608Z,94.34
2022-10-01T16:00:44.196Z,94.50
2022-10-01T16:03:23.310Z,94.77
2022-10-01T16:05:52.737Z,94.66
2022-10-01T16:08:23.724Z,94.31
2022-10-01T16:11:31.851Z,94.28
2022-10-01T16:14:22.393Z,94.80
2022-10-01T16:16:50.812Z,94.97
2022-10-01T16:19:31.926Z,95.03
2022-10-01T16:22:18.726Z,95.66
2022-10-01T16:24:51.336Z,95.39
2022-10-01T16:27:19.672Z,95.32
2022-10-01T16:30:05.769Z,95.91
2022-10-01T16:32:33.367Z,95.93
2022-10-01T16:35:16.160Z,96.14
2022-10-01T16:37:43.955Z,96.36
2022-10-01T16:40:15.941Z,96.32
2022-10-01T16:42:44.132Z,96.18
2022-10-01T16:45:15.959Z,96.08
2022-10-01T16:47:43.608Z,96.81
2022-10-01T16:50:12.967Z,96.69
2022-10-01T16:52:40.282Z,96.54
2022-10-01T16:55:25.132Z,97.27
2022-10-01T16:57:56.016Z,97.56
2022-10-01T17:00:25.594Z,97.52
2022-10-01T17:02:53.833Z,97.30
2022-10-01T17:05:29.657Z,97.14
2022-10-01T17:08:05.202Z,96.95
2022-10-01T17:10:35.806Z,96.87
2022-10-01T17:13:03.616Z,96.37
2022-10-01T17:15:31.152Z,96.22
2022-10-01T17:17:58.968Z,96.13
2022-10-01T17:20:31.012Z,95.50
2022-10-01T17:22:58.797Z,96.59
2022-10-01T17:25:31.832Z,96.74
2022-10-01T17:28:00.734Z,97.28
2022-10-01T17:30:29.258Z,97.60
2022-10-01T17:32:57.375Z,98.00
2022-10-01T17:35:24.890Z,97.87
2022-10-01T17:37:52.083Z,97.90
2022-10-01T17:40:19.591Z,97.77
2022-10-01T17:42:46.915Z,97.60
2022-10-01T17:45:16.383Z,97.46
2022-10-01T17:47:47.910Z,97.12
2022-10-01T17:50:16.175Z,96.59
2022-10-01T17:52:43.853Z,96.58
2022-10-01T17:55:12.205Z,96.34
2022-10-01T17:57:39.796Z,95.80
2022-10-01T18:00:07.511Z,95.54
2022-10-01T18:02:42.117Z,95.22
2022-10-01T18:05:12.265Z,95.47
2022-10-01T18:07:39.837Z,96.20
2022-10-01T18:10:09.284Z,96.77
2022-10-01T18:12:36.439Z,97.24
2022-10-01T18:15:03.799Z,98.18
2022-10-01T18:17:32.757Z,98.53
2022-10-01T18:20:00.047Z,98.92
2022-10-01T18:22:28.188Z,99.19
2022-10-01T18:24:55.333Z,98.99
2022-10-01T18:27:22.515Z,98.89
2022-10-01T18:29:49.696Z,99.06
2022-10-01T18:32:19.394Z,98.96
2022-10-01T18:35:00.799Z,98.64
2022-10-01T18:37:32.432Z,98.34
2022-10-01T18:40:08.474Z,98.46
2022-10-01T18:42:59.966Z,97.89
2022-10-01T18:45:53.181Z,97.46
2022-10-01T18:48:37.157Z,97.35
2022-10-01T18:51:40.922Z,97.01
2022-10-01T18:54:36.858Z,96.88
2022-10-01T18:57:39.717Z,96.66
2022-10-01T19:00:11.064Z,96.49
2022-10-01T19:03:03.119Z,95.48
2022-10-01T19:05:54.510Z,95.64
2022-10-01T19:08:37.411Z,95.08
2022-10-01T19:11:23.610Z,95.04
2022-10-01T19:14:29.032Z,95.53
2022-10-01T19:17:18.191Z,94.91
2022-10-01T19:19:52.597Z,94.78
2022-10-01T19:22:51.711Z,94.76
2022-10-01T19:25:27.838Z,95.04
2022-10-01T19:28:07.788Z,94.91
2022-10-01T19:30:57.872Z,95.49
2022-10-01T19:33:25.306Z,96.06
2022-10-01T19:35:57.208Z,96.65
2022-10-01T19:38:37.121Z,97.02
2022-10-01T19:41:31.857Z,97.08
2022-10-01T19:44:09.886Z,97.73
2022-10-01T19:46:45.484Z,98.13
2022-10-01T19:49:27.593Z,97.44
2022-10-01T19:52:12.693Z,97.71
2022-10-01T19:54:45.328Z,97.59
2022-10-01T19:57:21.628Z,97.86
2022-10-01T19:59:54.749Z,98.18
2022-10-01T20:02:40.047Z,98.52
2022-10-01T20:05:10.817Z,98.78
2022-10-01T20:07:47.909Z,98.73
2022-10-01T20:10:30.308Z,99.07
2022-10-01T20:13:24.116Z,99.38
2022-10-01T20:16:11.345Z,99.86
2022-10-01T20:19:04.935Z,99.91
2022-10-01T20:21:55.072Z,100.00
2022-10-01T20:24:43.922Z,100.00
2022-10-01T20:27:32.264Z,99.93
2022-10-01T20:30:05.701Z,100.00
2022-10-01T20:33:02.357Z,100.00
2022-10-01T20:35:40.416Z,100.00
2022-10-01T20:38:12.272Z,100.00
2022-10-01T20:40:49.454Z,100.00
2022-10-01T20:43:49.033Z,100.00
2022-10-01T20:46:36.525Z,100.00
2022-10-01T20:49:24.584Z,100.00
2022-10-01T20:52:00.732Z,100.00
2022-10-01T20:54:39.131Z,100.00
2022-10-01T20:57:31.372Z,100.00
2022-10-01T21:00:07.961Z,100.00
2022-10-01T21:02:42.478Z,100.00
2022-10-01T21:05:14.591Z,100.00
2022-10-01T21:07:52.840Z,100.00
2022-10-01T21:10:42.453Z,100.00
2022-10-01T21:13:26.763Z,100.00
2022-10-01T21:16:12.067Z,100.00
2022-10-01T21:19:12.967Z,100.00
2022-10-01T21:21:55.529Z,100.00
2022-10-01T21:24:41.945Z,100.00
2022-10-01T21:27:30.253Z,100.00
2022-10-01T21:30:14.415Z,100.00
2022-10-01T21:33:04.078Z,100.00
2022-10-01T21:35:46.011Z,100.00
2022-10-01T21:38:28.324Z,100.00
2022-10-01T21:40:59.267Z,100.00
2022-10-01T21:43:41.104Z,100.00
2022-10-01T21:46:31.740Z,100.00
2022-10-01T21:49:23.784Z,100.00
2022-10-01T21:52:13.283Z,100.00
2022-10-01T21:55:11.553Z,100.00
2022-10-01T21:57:54.225Z,100.00
2022-10-01T22:00:28.704Z,100.00
2022-10-01T22:03:22.983Z,100.00
2022-10-01T22:06:09.778Z,100.00
2022-10-01T22:09:01.791Z,100.00
2022-10-01T22:11:39.335Z,100.00
2022-10-01T22:14:16.501Z,100.00
2022-10-01T22:16:56.113Z,100.00
2022-10-01T22:19:28.984Z,100.00
2022-10-01T22:22:10.977Z,100.00
2022-10-01T22:24:44.645Z,100.00
2022-10-01T22:27:32.430Z,100.00
2022-10-01T22:30:07.214Z,100.00
2022-10-01T22:32:58.372Z,100.00
2022-10-01T22:35:46.408Z,100.00
2022-10-01T22:38:33.427Z,100.00
2022-10-01T22:41:17.327Z,100.00
2022-10-01T22:43:45.917Z,100.00
2022-10-01T22:46:22.021Z,100.00
2022-10-01T22:48:57.640Z,100.00
2022-10-01T22:51:50.418Z,100.00
2022-10-01T22:54:33.671Z,100.00
2022-10-01T22:57:08.518Z,100.00
2022-10-01T22:59:44.759Z,100.00
2022-10-01T23:02:36.006Z,100.00
2022-10-01T23:05:11.170Z,100.00
2022-10-01T23:08:04.277Z,100.00
2022-10-01T23:10:35.743Z,100.00
2022-10-01T23:13:34.969Z,100.00
2022-10-01T23:16:07.120Z,100.00
2022-10-01T23:18:47.280Z,100.00
2022-10-01T23:21:27.835Z,100.00
2022-10-01T23:24:10.496Z,100.00
2022-10-01T23:27:06.465Z,100.00
2022-10-01T23:30:08.838Z,100.00
2022-10-01T23:32:50.044Z,100.00
2022-10-01T23:35:21.622Z,100.00
2022-10-01T23:38:23.813Z,100.00
2022-10-01T23:40:54.976Z,100.00
2022-10-01T23:43:35.376Z,100.00
2022-10-01T23:46:13.417Z,100.00
2022-10-01T23:48:44.749Z,100.00
2022-10-01T23:51:24.828Z,100.00
2022-10-01T23:54:14.771Z,100.00
2022-10-01T23:57:09.244Z,100.00
2022-10-01T23:59:44.770Z,100.00
